createdAt,value
2022-09-07T00:00:44.955Z,58.67
2022-09-07T00:03:11.559Z,58.55
2022-09-07T00:05:43.153Z,58.54
2022-09-07T00:08:10.221Z,58.31
2022-09-07T00:10:37.184Z,58.61
2022-09-07T00:13:04.270Z,58.19
2022-09-07T00:15:31.024Z,58.23
2022-09-07T00:17:57.545Z,58.37
2022-09-07T00:20:24.083Z,58.38
2022-09-07T00:22:50.550Z,58.13
2022-09-07T00:25:17.061Z,58.10
2022-09-07T00:27:43.507Z,58.18
2022-09-07T00:30:10.473Z,58.19
2022-09-07T00:32:37.021Z,58.34
2022-09-07T00:35:03.627Z,58.25
2022-09-07T00:37:30.077Z,58.22
2022-09-07T00:39:56.640Z,58.13
2022-09-07T00:42:23.506Z,58.58
2022-09-07T00:45:07.099Z,57.92
2022-09-07T00:47:55.399Z,58.06
2022-09-07T00:50:34.050Z,58.15
2022-09-07T00:53:24.534Z,57.71
2022-09-07T00:55:53.639Z,57.86
2022-09-07T00:58:22.517Z,58.09
2022-09-07T01:00:50.070Z,58.03
2022-09-07T01:03:27.245Z,58.10
2022-09-07T01:06:17.600Z,57.96
2022-09-07T01:08:44.098Z,56.77
2022-09-07T01:11:12.141Z,57.96
2022-09-07T01:13:44.151Z,58.03
2022-09-07T01:16:36.551Z,58.03
2022-09-07T01:19:18.252Z,57.74
2022-09-07T01:22:06.131Z,58.14
2022-09-07T01:24:35.437Z,58.12
2022-09-07T01:27:56.035Z,57.65
2022-09-07T01:30:24.091Z,57.77
2022-09-07T01:33:02.887Z,58.04
2022-09-07T01:35:54.160Z,57.90
2022-09-07T01:38:28.355Z,57.78
2022-09-07T01:41:18.625Z,57.77
2022-09-07T01:43:48.612Z,56.76
2022-09-07T01:46:33.681Z,57.07
2022-09-07T01:49:12.121Z,57.53
2022-09-07T01:51:43.899Z,57.58
2022-09-07T01:54:15.931Z,57.93
2022-09-07T01:56:47.470Z,57.72
2022-09-07T01:59:31.914Z,57.79
2022-09-07T02:02:07.622Z,57.55
2022-09-07T02:04:46.944Z,57.17
2022-09-07T02:07:21.599Z,57.20
2022-09-07T02:09:52.668Z,57.27
2022-09-07T02:12:27.809Z,57.24
2022-09-07T02:15:01.889Z,57.12
2022-09-07T02:17:36.137Z,56.73
2022-09-07T02:20:19.357Z,56.89
2022-09-07T02:22:51.794Z,56.86
2022-09-07T02:25:24.039Z,57.14
2022-09-07T02:27:57.265Z,56.67
2022-09-07T02:30:23.860Z,56.45
2022-09-07T02:32:50.911Z,56.34
2022-09-07T02:35:17.808Z,56.50
2022-09-07T02:37:45.510Z,56.33
2022-09-07T02:40:12.970Z,56.57
2022-09-07T02:42:39.739Z,56.87
2022-09-07T02:45:09.711Z,56.85
2022-09-07T02:48:09.603Z,56.39
2022-09-07T02:51:01.127Z,56.74
2022-09-07T02:53:33.667Z,56.78
2022-09-07T02:56:18.995Z,56.67
2022-09-07T02:58:54.535Z,56.52
2022-09-07T03:01:20.993Z,56.57
2022-09-07T03:04:03.893Z,56.63
2022-09-07T03:06:39.113Z,56.92
2022-09-07T03:09:11.365Z,56.81
2022-09-07T03:11:38.334Z,56.57
2022-09-07T03:14:16.564Z,56.72
2022-09-07T03:16:43.715Z,56.32
2022-09-07T03:19:10.236Z,56.63
2022-09-07T03:21:36.645Z,56.68
2022-09-07T03:24:03.410Z,56.99
2022-09-07T03:26:29.877Z,56.77
2022-09-07T03:28:56.569Z,56.95
2022-09-07T03:31:23.069Z,56.93
2022-09-07T03:33:49.604Z,57.12
2022-09-07T03:36:16.078Z,56.95
2022-09-07T03:38:42.542Z,57.33
2022-09-07T03:41:08.991Z,57.45
2022-09-07T03:43:35.866Z,57.32
2022-09-07T03:46:05.357Z,57.55
2022-09-07T03:48:35.573Z,57.74
2022-09-07T03:51:05.481Z,57.60
2022-09-07T03:53:33.486Z,57.33
2022-09-07T03:56:02.119Z,57.55
2022-09-07T03:58:30.212Z,57.97
2022-09-07T04:00:57.522Z,57.90
2022-09-07T04:03:24.065Z,57.98
2022-09-07T04:05:50.528Z,57.28
2022-09-07T04:08:17.662Z,57.97
2022-09-07T04:10:44.115Z,57.90
2022-09-07T04:13:10.891Z,57.68
2022-09-07T04:15:37.465Z,57.97
2022-09-07T04:18:04.003Z,57.75
2022-09-07T04:20:31.051Z,57.86
2022-09-07T04:22:57.511Z,58.15
2022-09-07T04:25:23.974Z,57.80
2022-09-07T04:27:50.434Z,58.01
2022-09-07T04:30:16.871Z,57.97
2022-09-07T04:32:43.294Z,57.90
2022-09-07T04:35:10.198Z,57.69
2022-09-07T04:37:36.668Z,57.67
2022-09-07T04:40:03.487Z,57.59
2022-09-07T04:42:30.154Z,57.64
2022-09-07T04:44:57.114Z,57.48
2022-09-07T04:47:23.645Z,57.55
2022-09-07T04:49:51.239Z,57.58
2022-09-07T04:52:18.394Z,57.32
2022-09-07T04:54:48.304Z,57.20
2022-09-07T04:57:14.794Z,57.34
2022-09-07T04:59:41.266Z,57.15
2022-09-07T05:02:07.944Z,57.20
2022-09-07T05:04:37.511Z,57.71
2022-09-07T05:07:03.945Z,57.47
2022-09-07T05:09:30.485Z,57.50
2022-09-07T05:11:56.993Z,57.27
2022-09-07T05:14:25.050Z,57.09
2022-09-07T05:16:51.603Z,57.34
2022-09-07T05:19:18.077Z,57.41
2022-09-07T05:21:44.563Z,57.50
2022-09-07T05:24:11.112Z,57.02
2022-09-07T05:26:39.170Z,56.70
2022-09-07T05:31:54.712Z,57.46
2022-09-07T05:36:55.146Z,56.63
2022-09-07T05:39:21.659Z,56.47
2022-09-07T05:41:48.154Z,55.71
2022-09-07T05:47:01.036Z,56.15
2022-09-07T05:49:27.500Z,55.45
2022-09-07T05:51:53.922Z,55.08
2022-09-07T05:54:20.367Z,55.09
2022-09-07T05:56:46.909Z,55.47
2022-09-07T05:59:13.338Z,55.32
2022-09-07T06:01:39.773Z,54.82
2022-09-07T06:04:06.419Z,54.87
2022-09-07T06:06:38.811Z,55.18
2022-09-07T06:09:06.439Z,54.79
2022-09-07T06:11:32.929Z,54.66
2022-09-07T06:13:59.379Z,54.82
2022-09-07T06:16:25.982Z,54.54
2022-09-07T06:18:52.557Z,55.37
2022-09-07T06:21:21.395Z,54.65
2022-09-07T06:23:49.098Z,54.83
2022-09-07T06:26:17.026Z,55.19
2022-09-07T06:28:49.858Z,55.63
2022-09-07T06:31:22.890Z,56.97
2022-09-07T06:33:50.903Z,56.47
2022-09-07T06:36:19.712Z,57.32
2022-09-07T06:38:47.584Z,57.96
2022-09-07T06:44:04.533Z,58.54
2022-09-07T06:49:19.894Z,61.14
2022-09-07T06:51:46.598Z,62.08
2022-09-07T06:56:59.431Z,63.85
2022-09-07T06:59:25.837Z,65.07
2022-09-07T07:01:52.476Z,65.81
2022-09-07T07:04:18.898Z,66.00
2022-09-07T07:06:45.321Z,66.58
2022-09-07T07:09:13.236Z,67.25
2022-09-07T07:11:39.812Z,68.11
2022-09-07T07:14:06.308Z,69.06
2022-09-07T07:16:32.969Z,70.10
2022-09-07T07:18:59.509Z,70.80
2022-09-07T07:21:26.021Z,71.78
2022-09-07T07:23:53.670Z,72.83
2022-09-07T07:26:23.759Z,73.49
2022-09-07T07:31:26.486Z,74.68
2022-09-07T07:33:54.059Z,74.94
2022-09-07T07:36:26.084Z,75.75
2022-09-07T07:44:14.405Z,76.13
2022-09-07T07:46:40.979Z,76.69
2022-09-07T07:49:07.566Z,76.74
2022-09-07T07:52:49.850Z,76.80
2022-09-07T07:54:20.612Z,78.05
2022-09-07T07:56:47.044Z,78.05
2022-09-07T07:59:15.816Z,78.73
2022-09-07T08:01:43.833Z,78.33
2022-09-07T08:04:10.391Z,78.79
2022-09-07T08:06:37.736Z,78.13
2022-09-07T08:09:04.217Z,78.57
2022-09-07T08:11:31.176Z,79.08
2022-09-07T08:14:00.160Z,79.20
2022-09-07T08:16:26.682Z,78.92
2022-09-07T08:18:54.305Z,78.80
2022-09-07T08:21:20.710Z,79.07
2022-09-07T08:23:47.080Z,78.90
2022-09-07T08:26:13.472Z,79.15
2022-09-07T08:28:42.621Z,79.19
2022-09-07T08:31:12.203Z,79.13
2022-09-07T08:33:39.022Z,78.86
2022-09-07T08:36:17.643Z,79.80
2022-09-07T08:38:44.220Z,79.10
2022-09-07T08:41:42.114Z,80.15
2022-09-07T08:45:13.211Z,79.40
2022-09-07T08:47:44.833Z,79.43
2022-09-07T08:50:18.283Z,80.01
2022-09-07T08:52:51.144Z,80.74
2022-09-07T08:55:20.454Z,80.93
2022-09-07T08:57:53.043Z,81.09
2022-09-07T09:00:20.179Z,80.44
2022-09-07T09:03:28.552Z,80.69
2022-09-07T09:05:46.668Z,80.94
2022-09-07T09:08:34.339Z,80.82
2022-09-07T09:11:19.013Z,81.41
2022-09-07T09:14:03.352Z,81.55
2022-09-07T09:16:42.896Z,81.80
2022-09-07T09:19:34.099Z,81.86
2022-09-07T09:22:15.971Z,81.50
2022-09-07T09:24:47.713Z,81.13
2022-09-07T09:27:14.203Z,81.71
2022-09-07T09:29:40.835Z,81.71
2022-09-07T09:32:34.958Z,83.23
2022-09-07T09:35:15.057Z,84.04
2022-09-07T09:37:42.815Z,83.35
2022-09-07T09:40:22.147Z,82.44
2022-09-07T09:42:59.537Z,81.22
2022-09-07T09:45:29.042Z,80.28
2022-09-07T09:47:57.615Z,79.25
2022-09-07T09:53:29.554Z,78.88
2022-09-07T09:55:56.315Z,78.13
2022-09-07T10:01:21.776Z,73.14
2022-09-07T10:03:57.589Z,72.48
2022-09-07T10:06:26.101Z,73.06
2022-09-07T10:08:57.658Z,73.26
2022-09-07T10:12:08.500Z,74.84
2022-09-07T10:14:46.492Z,73.15
2022-09-07T10:17:28.448Z,72.09
2022-09-07T10:20:19.966Z,69.19
2022-09-07T10:22:58.432Z,69.19
2022-09-07T10:25:30.821Z,68.01
2022-09-07T10:28:15.535Z,68.78
2022-09-07T10:31:14.822Z,66.10
2022-09-07T10:37:00.021Z,63.09
2022-09-07T10:39:34.432Z,65.60
2022-09-07T10:42:03.858Z,62.42
2022-09-07T10:44:44.482Z,61.97
2022-09-07T10:47:46.798Z,62.95
2022-09-07T10:50:47.702Z,60.77
2022-09-07T10:53:41.659Z,60.80
2022-09-07T10:56:15.140Z,60.46
2022-09-07T11:01:34.167Z,58.60
2022-09-07T11:04:11.573Z,59.61
2022-09-07T11:06:41.686Z,59.37
2022-09-07T11:09:28.629Z,58.78
2022-09-07T11:12:02.231Z,57.44
2022-09-07T11:14:36.380Z,55.47
2022-09-07T11:17:13.591Z,57.17
2022-09-07T11:19:47.880Z,55.45
2022-09-07T11:22:26.466Z,54.35
2022-09-07T11:27:51.335Z,52.04
2022-09-07T11:30:20.093Z,52.14
2022-09-07T11:32:59.146Z,50.60
2022-09-07T11:35:39.461Z,52.49
2022-09-07T11:38:25.678Z,51.05
2022-09-07T11:41:30.047Z,50.64
2022-09-07T11:44:21.807Z,50.57
2022-09-07T11:46:53.421Z,51.77
2022-09-07T11:49:25.821Z,49.44
2022-09-07T11:52:24.815Z,50.58
2022-09-07T11:54:53.904Z,48.86
2022-09-07T11:57:38.682Z,49.70
2022-09-07T12:00:31.137Z,49.36
2022-09-07T12:03:23.212Z,50.00
2022-09-07T12:06:27.303Z,49.74
2022-09-07T12:09:02.471Z,49.06
2022-09-07T12:11:58.515Z,49.01
2022-09-07T12:14:47.851Z,46.93
2022-09-07T12:17:42.561Z,47.61
2022-09-07T12:20:15.344Z,45.53
2022-09-07T12:23:05.791Z,46.67
2022-09-07T12:25:34.156Z,46.61
2022-09-07T12:28:00.704Z,44.43
2022-09-07T12:30:27.132Z,43.90
2022-09-07T12:32:58.077Z,42.07
2022-09-07T12:35:37.293Z,44.25
2022-09-07T12:38:32.608Z,43.91
2022-09-07T12:41:22.609Z,42.97
2022-09-07T12:43:49.221Z,42.29
2022-09-07T12:46:35.017Z,41.85
2022-09-07T12:49:16.893Z,40.79
2022-09-07T12:52:06.813Z,40.26
2022-09-07T12:54:43.542Z,40.56
2022-09-07T12:57:29.577Z,41.42
2022-09-07T13:00:12.672Z,41.17
2022-09-07T13:03:04.260Z,41.18
2022-09-07T13:05:55.807Z,40.56
2022-09-07T13:08:40.559Z,39.96
2022-09-07T13:11:30.051Z,40.71
2022-09-07T13:14:08.807Z,40.48
2022-09-07T13:19:46.207Z,40.20
2022-09-07T13:22:30.971Z,40.29
2022-09-07T13:24:59.699Z,40.00
2022-09-07T13:27:28.920Z,39.16
2022-09-07T13:29:59.055Z,39.54
2022-09-07T13:35:21.454Z,39.13
2022-09-07T13:37:58.976Z,39.72
2022-09-07T13:40:28.626Z,39.44
2022-09-07T13:42:56.958Z,40.25
2022-09-07T13:46:01.307Z,41.01
2022-09-07T13:48:36.605Z,41.72
2022-09-07T13:51:18.777Z,40.85
2022-09-07T13:54:03.432Z,40.43
2022-09-07T13:56:29.780Z,41.44
2022-09-07T13:58:56.443Z,40.80
2022-09-07T14:01:25.726Z,41.29
2022-09-07T14:03:55.870Z,40.33
2022-09-07T14:06:22.240Z,39.99
2022-09-07T14:08:54.373Z,39.91
2022-09-07T14:11:25.684Z,40.40
2022-09-07T14:14:14.647Z,41.38
2022-09-07T14:16:43.945Z,40.43
2022-09-07T14:19:13.297Z,41.51
2022-09-07T14:21:40.146Z,40.61
2022-09-07T14:24:29.903Z,41.19
2022-09-07T14:26:56.835Z,41.69
2022-09-07T14:29:32.194Z,41.03
2022-09-07T14:32:00.970Z,41.28
2022-09-07T14:34:34.791Z,41.64
2022-09-07T14:37:06.030Z,41.76
2022-09-07T14:39:38.027Z,41.79
2022-09-07T14:42:05.293Z,42.21
2022-09-07T14:44:40.455Z,42.25
2022-09-07T14:47:23.290Z,42.78
2022-09-07T14:49:52.612Z,42.59
2022-09-07T14:52:31.456Z,43.10
2022-09-07T14:54:58.367Z,43.66
2022-09-07T14:57:31.894Z,43.63
2022-09-07T15:00:19.626Z,44.40
2022-09-07T15:02:46.312Z,44.58
2022-09-07T15:05:20.742Z,45.77
2022-09-07T15:07:53.355Z,46.32
2022-09-07T15:10:23.520Z,45.98
2022-09-07T15:12:55.271Z,46.26
2022-09-07T15:15:33.196Z,46.86
2022-09-07T15:18:07.798Z,46.15
2022-09-07T15:20:44.103Z,47.64
2022-09-07T15:23:15.805Z,47.64
2022-09-07T15:25:48.182Z,46.96
2022-09-07T15:34:11.281Z,48.30
2022-09-07T15:36:40.802Z,48.48
2022-09-07T15:39:14.221Z,48.24
2022-09-07T15:41:40.571Z,48.65
2022-09-07T15:44:07.465Z,48.63
2022-09-07T15:46:34.740Z,49.24
2022-09-07T15:49:06.913Z,49.97
2022-09-07T15:54:20.712Z,49.21
2022-09-07T15:59:34.816Z,49.71
2022-09-07T16:02:02.021Z,50.83
2022-09-07T16:04:29.205Z,49.94
2022-09-07T16:06:55.708Z,50.25
2022-09-07T16:09:22.231Z,50.30
2022-09-07T16:11:50.167Z,50.70
2022-09-07T16:14:18.796Z,51.42
2022-09-07T16:19:36.230Z,51.81
2022-09-07T16:22:03.194Z,51.23
2022-09-07T16:24:29.910Z,51.27
2022-09-07T16:26:56.873Z,51.82
2022-09-07T16:29:23.299Z,50.61
2022-09-07T16:34:36.473Z,51.36
2022-09-07T16:37:03.159Z,51.60
2022-09-07T16:39:29.552Z,51.27
2022-09-07T16:41:56.101Z,51.69
2022-09-07T16:44:22.888Z,52.19
2022-09-07T16:46:50.434Z,51.76
2022-09-07T16:49:17.713Z,53.17
2022-09-07T16:51:45.686Z,52.29
2022-09-07T16:54:13.249Z,53.27
2022-09-07T16:56:39.830Z,53.41
2022-09-07T16:59:09.595Z,53.93
2022-09-07T17:01:37.949Z,53.89
2022-09-07T17:04:10.450Z,54.08
2022-09-07T17:06:37.928Z,54.50
2022-09-07T17:09:04.876Z,55.24
2022-09-07T17:11:33.703Z,55.31
2022-09-07T17:14:01.152Z,55.51
2022-09-07T17:16:36.184Z,55.99
2022-09-07T17:21:52.695Z,56.63
2022-09-07T17:24:19.738Z,56.76
2022-09-07T17:26:46.623Z,56.94
2022-09-07T17:29:13.457Z,57.92
2022-09-07T17:34:26.594Z,57.65
2022-09-07T17:36:53.021Z,58.33
2022-09-07T17:39:19.874Z,58.60
2022-09-07T17:41:52.650Z,59.08
2022-09-07T17:44:19.405Z,59.92
2022-09-07T17:46:45.824Z,59.77
2022-09-07T17:49:14.253Z,60.76
2022-09-07T17:51:40.711Z,60.67
2022-09-07T17:54:11.613Z,61.29
2022-09-07T17:56:39.731Z,62.18
2022-09-07T18:01:54.102Z,63.55
2022-09-07T18:04:21.051Z,64.19
2022-09-07T18:06:47.502Z,64.55
2022-09-07T18:09:14.012Z,64.68
2022-09-07T18:11:49.798Z,65.40
2022-09-07T18:14:17.803Z,65.75
2022-09-07T18:16:46.204Z,66.22
2022-09-07T18:19:13.338Z,66.63
2022-09-07T18:21:42.059Z,67.08
2022-09-07T18:24:23.444Z,67.13
2022-09-07T18:26:52.546Z,67.67
2022-09-07T18:29:34.044Z,68.37
2022-09-07T18:32:04.577Z,68.26
2022-09-07T18:34:32.210Z,68.69
2022-09-07T18:36:59.547Z,68.84
2022-09-07T18:39:26.724Z,69.15
2022-09-07T18:41:56.196Z,69.64
2022-09-07T18:47:20.811Z,66.80
2022-09-07T18:49:49.055Z,68.98
2022-09-07T18:55:01.955Z,70.19
2022-09-07T18:57:28.488Z,70.72
2022-09-07T18:59:54.854Z,70.65
2022-09-07T19:02:21.295Z,71.66
2022-09-07T19:07:34.409Z,72.15
2022-09-07T19:10:04.371Z,72.36
2022-09-07T19:12:30.814Z,72.72
2022-09-07T19:14:57.155Z,72.89
2022-09-07T19:17:24.639Z,73.03
2022-09-07T19:19:52.679Z,73.19
2022-09-07T19:22:19.118Z,73.25
2022-09-07T19:24:45.520Z,73.21
2022-09-07T19:27:12.245Z,73.42
2022-09-07T19:29:38.593Z,73.67
2022-09-07T19:32:08.987Z,73.46
2022-09-07T19:34:41.110Z,74.17
2022-09-07T19:37:09.293Z,74.03
2022-09-07T19:39:35.807Z,74.14
2022-09-07T19:42:04.299Z,74.07
2022-09-07T19:44:31.112Z,74.43
2022-09-07T19:46:57.618Z,73.93
2022-09-07T19:49:24.087Z,73.85
2022-09-07T19:51:51.873Z,74.03
2022-09-07T19:54:18.808Z,74.21
2022-09-07T19:56:45.556Z,73.92
2022-09-07T19:59:12.464Z,73.84
2022-09-07T20:01:40.541Z,73.81
2022-09-07T20:04:12.919Z,74.26
2022-09-07T20:06:41.410Z,73.88
2022-09-07T20:09:08.247Z,73.94
2022-09-07T20:11:35.933Z,73.98
2022-09-07T20:14:02.866Z,73.57
2022-09-07T20:16:29.901Z,73.52
2022-09-07T20:18:56.611Z,73.67
2022-09-07T20:21:24.222Z,73.29
2022-09-07T20:23:51.133Z,73.39
2022-09-07T20:26:20.234Z,73.22
2022-09-07T20:29:05.680Z,72.93
2022-09-07T20:31:38.672Z,72.46
2022-09-07T20:34:05.411Z,73.02
2022-09-07T20:36:31.829Z,72.92
2022-09-07T20:38:58.288Z,73.00
2022-09-07T20:41:31.388Z,73.52
2022-09-07T20:44:00.024Z,73.30
2022-09-07T20:46:28.302Z,73.17
2022-09-07T20:48:55.107Z,73.00
2022-09-07T20:51:21.960Z,73.24
2022-09-07T20:53:49.290Z,73.64
2022-09-07T20:56:18.525Z,73.82
2022-09-07T20:58:46.564Z,74.09
2022-09-07T21:01:15.387Z,74.39
2022-09-07T21:04:01.079Z,74.77
2022-09-07T21:06:28.713Z,74.89
2022-09-07T21:08:57.150Z,74.99
2022-09-07T21:11:28.928Z,76.21
2022-09-07T21:14:01.001Z,76.53
2022-09-07T21:16:28.410Z,76.61
2022-09-07T21:18:57.576Z,76.82
2022-09-07T21:21:26.545Z,77.12
2022-09-07T21:24:01.643Z,77.99
2022-09-07T21:26:28.499Z,78.00
2022-09-07T21:29:00.119Z,78.79
2022-09-07T21:31:28.166Z,79.02
2022-09-07T21:33:56.175Z,79.07
2022-09-07T21:36:23.002Z,79.55
2022-09-07T21:38:50.166Z,79.51
2022-09-07T21:41:18.449Z,80.07
2022-09-07T21:43:44.811Z,80.28
2022-09-07T21:46:12.683Z,80.25
2022-09-07T21:48:39.995Z,80.88
2022-09-07T21:51:07.063Z,80.72
2022-09-07T21:53:34.512Z,80.83
2022-09-07T21:56:06.743Z,81.06
2022-09-07T21:58:33.592Z,80.71
2022-09-07T22:01:08.200Z,80.42
2022-09-07T22:03:34.820Z,80.14
2022-09-07T22:06:02.862Z,79.87
2022-09-07T22:08:29.267Z,80.00
2022-09-07T22:11:13.155Z,80.59
2022-09-07T22:13:39.682Z,80.14
2022-09-07T22:16:06.797Z,80.33
2022-09-07T22:18:34.587Z,80.25
2022-09-07T22:21:15.776Z,81.23
2022-09-07T22:23:45.388Z,80.68
2022-09-07T22:26:13.230Z,81.13
2022-09-07T22:28:40.184Z,81.55
2022-09-07T22:31:12.170Z,82.24
2022-09-07T22:33:39.492Z,81.78
2022-09-07T22:36:11.373Z,83.15
2022-09-07T22:38:38.223Z,82.29
2022-09-07T22:41:13.786Z,83.71
2022-09-07T22:43:40.955Z,83.88
2022-09-07T22:46:07.509Z,83.88
2022-09-07T22:48:34.357Z,84.28
2022-09-07T22:51:01.996Z,84.59
2022-09-07T22:53:30.850Z,84.52
2022-09-07T22:55:58.195Z,84.60
2022-09-07T22:58:25.100Z,84.74
2022-09-07T23:00:52.756Z,84.80
2022-09-07T23:03:19.320Z,84.89
2022-09-07T23:05:46.881Z,85.43
2022-09-07T23:08:13.357Z,85.30
2022-09-07T23:10:39.775Z,85.22
2022-09-07T23:13:06.221Z,85.80
2022-09-07T23:15:36.149Z,86.08
2022-09-07T23:18:02.513Z,85.44
2022-09-07T23:20:28.872Z,85.55
2022-09-07T23:22:55.220Z,85.79
2022-09-07T23:25:21.724Z,86.59
2022-09-07T23:27:48.743Z,86.46
2022-09-07T23:30:15.252Z,86.38
2022-09-07T23:32:41.775Z,87.22
2022-09-07T23:35:08.717Z,87.28
2022-09-07T23:37:35.192Z,87.56
2022-09-07T23:40:01.842Z,87.34
2022-09-07T23:42:28.236Z,87.41
2022-09-07T23:44:54.609Z,87.06
2022-09-07T23:47:20.945Z,87.26
2022-09-07T23:49:47.334Z,87.00
2022-09-07T23:52:13.756Z,88.17
2022-09-07T23:54:40.116Z,88.32
2022-09-07T23:57:06.496Z,88.19
2022-09-07T23:59:33.903Z,88.09
